createdAt,value
2019-05-17T00:00:57.334Z,4.30
2019-05-17T00:03:27.097Z,4.67
2019-05-17T00:05:57.360Z,4.62
2019-05-17T00:08:34.292Z,4.40
2019-05-17T00:10:57.553Z,4.95
2019-05-17T00:13:26.964Z,5.40
2019-05-17T00:15:56.680Z,4.83
2019-05-17T00:18:27.110Z,4.75
2019-05-17T00:20:57.082Z,4.80
2019-05-17T00:23:26.917Z,5.35
2019-05-17T00:25:56.577Z,5.00
2019-05-17T00:28:26.964Z,5.05
2019-05-17T00:30:57.144Z,6.00
2019-05-17T00:33:27.210Z,6.03
2019-05-17T00:35:56.672Z,5.85
2019-05-17T00:38:27.443Z,5.62
2019-05-17T00:40:58.144Z,5.65
2019-05-17T00:43:28.590Z,5.33
2019-05-17T00:45:57.962Z,5.87
2019-05-17T00:48:27.134Z,6.08
2019-05-17T00:51:02.207Z,5.42
2019-05-17T00:53:28.632Z,5.17
2019-05-17T00:55:57.807Z,5.97
2019-05-17T00:58:27.054Z,5.87
2019-05-17T01:00:57.039Z,5.42
2019-05-17T01:03:26.963Z,6.75
2019-05-17T01:05:56.747Z,7.35
2019-05-17T01:08:26.670Z,6.30
2019-05-17T01:10:56.606Z,6.72
2019-05-17T01:13:26.699Z,6.20
2019-05-17T01:15:56.693Z,6.78
2019-05-17T01:18:26.981Z,6.83
2019-05-17T01:20:56.866Z,8.43
2019-05-17T01:23:29.203Z,9.55
2019-05-17T01:28:28.140Z,7.47
2019-05-17T01:31:03.312Z,7.08
2019-05-17T01:33:32.979Z,8.98
2019-05-17T01:36:02.298Z,7.28
2019-05-17T01:38:31.463Z,7.35
2019-05-17T01:41:00.758Z,6.95
2019-05-17T01:43:29.991Z,6.85
2019-05-17T01:45:59.286Z,6.55
2019-05-17T01:48:28.534Z,6.78
2019-05-17T01:50:58.017Z,7.25
2019-05-17T01:53:27.293Z,7.30
2019-05-17T01:55:56.916Z,6.95
2019-05-17T01:58:26.952Z,7.12
2019-05-17T02:00:57.394Z,7.28
2019-05-17T02:03:26.945Z,6.37
2019-05-17T02:05:56.707Z,6.50
2019-05-17T02:08:26.461Z,7.08
2019-05-17T02:10:57.375Z,6.70
2019-05-17T02:13:26.895Z,6.80
2019-05-17T02:15:56.556Z,48.38
2019-05-17T02:18:26.595Z,6.80
2019-05-17T02:20:57.101Z,6.83
2019-05-17T02:23:27.004Z,7.15
2019-05-17T02:25:57.144Z,6.53
2019-05-17T02:28:26.501Z,7.00
2019-05-17T02:30:55.770Z,6.65
2019-05-17T02:33:25.091Z,6.37
2019-05-17T02:35:54.294Z,6.25
2019-05-17T02:38:23.597Z,6.30
2019-05-17T02:40:53.529Z,6.67
2019-05-17T02:43:23.730Z,6.95
2019-05-17T02:45:53.103Z,6.60
2019-05-17T02:48:23.273Z,6.72
2019-05-17T02:50:53.396Z,6.50
2019-05-17T02:53:23.200Z,6.87
2019-05-17T02:55:53.875Z,6.00
2019-05-17T02:58:23.611Z,6.90
2019-05-17T03:00:53.489Z,6.50
2019-05-17T03:03:23.744Z,6.17
2019-05-17T03:05:53.739Z,5.90
2019-05-17T03:08:23.821Z,6.47
2019-05-17T03:10:54.619Z,6.17
2019-05-17T03:13:23.781Z,6.70
2019-05-17T03:15:53.179Z,6.08
2019-05-17T03:18:24.067Z,6.50
2019-05-17T03:20:54.435Z,6.33
2019-05-17T03:23:23.742Z,6.12
2019-05-17T03:25:53.066Z,7.30
2019-05-17T03:28:23.516Z,11.97
2019-05-17T03:30:56.311Z,7.37
2019-05-17T03:33:26.535Z,15.23
2019-05-17T03:35:56.858Z,11.73
2019-05-17T03:38:26.838Z,9.25
2019-05-17T03:41:12.375Z,8.08
2019-05-17T03:43:28.619Z,7.47
2019-05-17T03:45:58.005Z,9.18
2019-05-17T03:48:29.187Z,8.68
2019-05-17T03:51:02.346Z,8.13
2019-05-17T03:53:33.458Z,7.45
2019-05-17T03:56:02.993Z,6.47
2019-05-17T03:58:33.492Z,7.20
2019-05-17T04:01:04.189Z,7.50
2019-05-17T04:03:35.656Z,7.03
2019-05-17T04:06:05.303Z,6.95
2019-05-17T04:08:36.074Z,6.83
2019-05-17T04:11:20.437Z,6.45
2019-05-17T04:13:38.730Z,8.75
2019-05-17T04:16:09.440Z,7.12
2019-05-17T04:18:39.279Z,6.70
2019-05-17T04:21:08.696Z,7.00
2019-05-17T04:23:37.950Z,7.97
2019-05-17T04:26:07.186Z,7.45
2019-05-17T04:28:36.519Z,7.80
2019-05-17T04:31:05.705Z,8.48
2019-05-17T04:33:34.977Z,9.70
2019-05-17T04:36:04.181Z,8.10
2019-05-17T04:38:33.923Z,8.73
2019-05-17T04:41:03.732Z,7.80
2019-05-17T04:43:33.725Z,7.92
2019-05-17T04:46:03.464Z,8.60
2019-05-17T04:48:33.125Z,7.90
2019-05-17T04:51:02.936Z,7.83
2019-05-17T04:53:32.998Z,8.18
2019-05-17T04:56:03.219Z,8.00
2019-05-17T04:58:33.745Z,8.98
2019-05-17T05:01:04.200Z,7.05
2019-05-17T05:03:33.789Z,6.95
2019-05-17T05:06:03.503Z,8.80
2019-05-17T05:08:33.304Z,7.53
2019-05-17T05:11:04.021Z,8.28
2019-05-17T05:13:33.827Z,9.20
2019-05-17T05:16:03.501Z,7.37
2019-05-17T05:18:33.043Z,7.70
2019-05-17T05:21:03.635Z,7.80
2019-05-17T05:23:33.308Z,8.30
2019-05-17T05:26:03.229Z,8.40
2019-05-17T05:28:32.623Z,9.83
2019-05-17T05:31:02.190Z,10.18
2019-05-17T05:33:33.095Z,10.82
2019-05-17T05:36:02.913Z,12.45
2019-05-17T05:38:32.270Z,11.50
2019-05-17T05:41:02.028Z,11.12
2019-05-17T05:43:32.618Z,10.75
2019-05-17T05:46:02.709Z,9.48
2019-05-17T05:48:33.707Z,10.38
2019-05-17T05:51:04.889Z,8.93
2019-05-17T05:53:35.648Z,9.33
2019-05-17T05:56:04.908Z,10.03
2019-05-17T05:58:34.187Z,8.90
2019-05-17T06:01:04.070Z,7.60
2019-05-17T06:03:33.302Z,8.35
2019-05-17T06:06:02.569Z,8.30
2019-05-17T06:08:32.409Z,8.35
2019-05-17T06:11:02.326Z,8.23
2019-05-17T06:13:32.716Z,8.63
2019-05-17T06:16:02.689Z,8.33
2019-05-17T06:18:32.562Z,8.35
2019-05-17T06:21:03.251Z,7.90
2019-05-17T06:23:32.617Z,9.43
2019-05-17T06:26:03.903Z,8.05
2019-05-17T06:28:32.881Z,8.63
2019-05-17T06:31:02.965Z,8.60
2019-05-17T06:33:34.853Z,8.10
2019-05-17T06:36:03.648Z,9.83
2019-05-17T06:38:33.114Z,8.78
2019-05-17T06:41:02.362Z,9.50
2019-05-17T06:43:32.325Z,9.23
2019-05-17T06:46:02.048Z,9.40
2019-05-17T06:48:32.026Z,10.03
2019-05-17T06:51:02.493Z,11.80
2019-05-17T06:53:32.513Z,10.50
2019-05-17T06:56:02.755Z,11.57
2019-05-17T06:58:32.231Z,12.15
2019-05-17T07:01:01.614Z,12.33
2019-05-17T07:03:30.876Z,10.90
2019-05-17T07:06:01.693Z,9.93
2019-05-17T07:08:31.044Z,10.08
2019-05-17T07:11:00.359Z,11.00
2019-05-17T07:13:30.201Z,9.58
2019-05-17T07:15:59.891Z,10.60
2019-05-17T07:18:30.070Z,12.00
2019-05-17T07:21:02.884Z,11.35
2019-05-17T07:23:30.487Z,11.17
2019-05-17T07:25:59.840Z,10.48
2019-05-17T07:28:30.214Z,9.63
2019-05-17T07:30:59.909Z,9.25
2019-05-17T07:33:30.514Z,11.00
2019-05-17T07:35:59.974Z,11.05
2019-05-17T07:38:30.302Z,11.83
2019-05-17T07:40:59.927Z,11.83
2019-05-17T07:43:29.889Z,11.05
2019-05-17T07:46:00.467Z,12.33
2019-05-17T07:48:31.450Z,10.25
2019-05-17T07:51:01.044Z,12.88
2019-05-17T07:53:30.869Z,13.00
2019-05-17T07:56:00.268Z,10.95
2019-05-17T07:58:30.097Z,11.40
2019-05-17T08:01:02.206Z,12.88
2019-05-17T08:03:30.831Z,11.50
2019-05-17T08:06:00.220Z,11.73
2019-05-17T08:08:31.004Z,13.25
2019-05-17T08:11:00.987Z,13.08
2019-05-17T08:13:33.570Z,10.78
2019-05-17T08:16:01.489Z,11.80
2019-05-17T08:18:30.825Z,18.32
2019-05-17T08:21:00.155Z,10.90
2019-05-17T08:23:30.462Z,11.20
2019-05-17T08:26:00.626Z,9.50
2019-05-17T08:28:31.200Z,10.23
2019-05-17T08:31:01.220Z,9.70
2019-05-17T08:33:31.028Z,11.05
2019-05-17T08:36:01.216Z,10.35
2019-05-17T08:38:30.743Z,13.08
2019-05-17T08:41:00.792Z,10.82
2019-05-17T08:43:41.812Z,11.38
2019-05-17T08:46:02.504Z,10.18
2019-05-17T08:48:32.181Z,9.65
2019-05-17T08:51:01.494Z,9.73
2019-05-17T08:53:30.802Z,8.90
2019-05-17T08:56:00.907Z,10.00
2019-05-17T08:58:30.937Z,10.13
2019-05-17T09:01:00.594Z,10.00
2019-05-17T09:03:30.335Z,10.50
2019-05-17T09:06:02.171Z,9.78
2019-05-17T09:08:31.172Z,10.35
2019-05-17T09:11:00.663Z,10.68
2019-05-17T09:13:30.049Z,10.32
2019-05-17T09:16:00.217Z,9.50
2019-05-17T09:18:30.340Z,9.18
2019-05-17T09:21:00.427Z,9.10
2019-05-17T09:23:30.502Z,9.70
2019-05-17T09:26:00.100Z,8.93
2019-05-17T09:28:30.069Z,8.43
2019-05-17T09:31:00.104Z,8.70
2019-05-17T09:33:30.260Z,8.53
2019-05-17T09:36:00.802Z,8.45
2019-05-17T09:38:30.790Z,8.73
2019-05-17T09:41:00.239Z,8.20
2019-05-17T09:43:29.741Z,8.38
2019-05-17T09:46:01.615Z,8.83
2019-05-17T09:48:30.769Z,8.17
2019-05-17T09:51:00.585Z,7.10
2019-05-17T09:53:30.764Z,7.15
2019-05-17T09:56:00.701Z,7.03
2019-05-17T09:58:30.229Z,7.42
2019-05-17T10:01:01.344Z,7.80
2019-05-17T10:03:30.959Z,7.13
2019-05-17T10:06:00.296Z,7.62
2019-05-17T10:08:29.540Z,7.92
2019-05-17T10:11:08.398Z,4.58
2019-05-17T10:13:29.992Z,6.97
2019-05-17T10:16:00.453Z,7.47
2019-05-17T10:18:29.967Z,7.20
2019-05-17T10:20:59.800Z,6.62
2019-05-17T10:23:29.920Z,7.12
2019-05-17T10:25:59.715Z,7.08
2019-05-17T10:28:29.217Z,6.50
2019-05-17T10:31:02.074Z,7.10
2019-05-17T10:33:29.779Z,7.50
2019-05-17T10:36:00.436Z,7.45
2019-05-17T10:38:30.160Z,7.33
2019-05-17T10:40:59.683Z,6.90
2019-05-17T10:43:29.850Z,7.08
2019-05-17T10:45:59.776Z,7.00
2019-05-17T10:48:30.061Z,7.30
2019-05-17T10:51:00.306Z,7.47
2019-05-17T10:53:29.986Z,6.97
2019-05-17T10:56:00.669Z,7.15
2019-05-17T10:58:30.248Z,7.03
2019-05-17T11:01:00.763Z,7.15
2019-05-17T11:03:30.469Z,7.37
2019-05-17T11:05:59.997Z,7.58
2019-05-17T11:08:29.477Z,7.30
2019-05-17T11:10:59.599Z,8.13
2019-05-17T11:13:29.276Z,7.22
2019-05-17T11:15:58.466Z,6.53
2019-05-17T11:18:27.828Z,7.05
2019-05-17T11:20:57.207Z,6.78
2019-05-17T11:23:26.603Z,7.25
2019-05-17T11:25:55.994Z,5.90
2019-05-17T11:28:25.369Z,7.30
2019-05-17T11:30:54.719Z,7.87
2019-05-17T11:33:23.989Z,7.70
2019-05-17T11:35:53.618Z,7.67
2019-05-17T11:38:23.102Z,7.40
2019-05-17T11:40:52.549Z,7.95
2019-05-17T11:43:21.788Z,8.55
2019-05-17T11:45:51.214Z,8.10
2019-05-17T11:48:20.663Z,8.60
2019-05-17T11:50:50.061Z,8.83
2019-05-17T11:53:19.387Z,9.40
2019-05-17T11:55:48.772Z,9.88
2019-05-17T11:58:18.028Z,9.58
2019-05-17T12:00:47.428Z,9.38
2019-05-17T12:03:16.792Z,9.23
2019-05-17T12:05:46.057Z,8.50
2019-05-17T12:08:15.324Z,9.58
2019-05-17T12:10:44.956Z,9.03
2019-05-17T12:13:14.366Z,9.33
2019-05-17T12:15:45.577Z,9.53
2019-05-17T12:18:14.808Z,8.20
2019-05-17T12:20:44.332Z,8.85
2019-05-17T12:23:13.511Z,9.28
2019-05-17T12:25:42.905Z,8.88
2019-05-17T12:28:12.226Z,9.70
2019-05-17T12:30:41.483Z,9.05
2019-05-17T12:33:10.888Z,9.90
2019-05-17T12:35:40.212Z,10.55
2019-05-17T12:38:09.550Z,10.50
2019-05-17T12:40:38.930Z,9.88
2019-05-17T12:43:08.261Z,9.70
2019-05-17T12:45:37.659Z,9.88
2019-05-17T12:48:06.982Z,10.50
2019-05-17T12:50:36.337Z,10.10
2019-05-17T12:53:05.770Z,9.13
2019-05-17T12:55:35.182Z,9.98
2019-05-17T12:58:04.499Z,11.05
2019-05-17T13:00:33.861Z,9.53
2019-05-17T13:03:03.142Z,10.20
2019-05-17T13:05:32.529Z,10.98
2019-05-17T13:08:01.950Z,11.95
2019-05-17T13:10:31.335Z,12.03
2019-05-17T13:13:00.656Z,12.20
2019-05-17T13:15:30.138Z,11.88
2019-05-17T13:17:59.473Z,11.90
2019-05-17T13:20:28.868Z,12.33
2019-05-17T13:22:58.280Z,11.75
2019-05-17T13:25:27.600Z,11.57
2019-05-17T13:27:56.850Z,12.35
2019-05-17T13:30:26.352Z,10.53
2019-05-17T13:32:55.622Z,10.20
2019-05-17T13:35:25.030Z,10.05
2019-05-17T13:37:54.449Z,9.40
2019-05-17T13:40:23.725Z,9.15
2019-05-17T13:42:53.113Z,10.23
2019-05-17T13:45:22.512Z,11.33
2019-05-17T13:47:51.862Z,10.23
2019-05-17T14:26:51.583Z,6.15
2019-05-17T14:29:21.019Z,6.45
2019-05-17T14:31:50.379Z,6.80
2019-05-17T14:34:19.686Z,6.70
2019-05-17T14:36:48.935Z,6.50
2019-05-17T14:39:18.133Z,6.85
2019-05-17T14:41:47.336Z,6.60
2019-05-17T14:44:16.649Z,6.78
2019-05-17T14:46:45.918Z,7.15
2019-05-17T14:49:15.235Z,7.10
2019-05-17T14:51:44.444Z,7.03
2019-05-17T14:54:13.683Z,6.47
2019-05-17T14:56:43.124Z,8.35
2019-05-17T14:59:12.373Z,6.25
2019-05-17T15:01:42.187Z,7.30
2019-05-17T15:04:11.351Z,6.47
2019-05-17T15:06:40.597Z,6.20
2019-05-17T15:09:11.682Z,6.00
2019-05-17T15:11:41.055Z,6.20
2019-05-17T15:14:10.309Z,7.12
2019-05-17T15:16:39.508Z,6.67
2019-05-17T15:19:08.771Z,6.55
2019-05-17T15:21:38.090Z,6.70
2019-05-17T15:24:07.278Z,7.50
2019-05-17T15:26:36.462Z,7.00
2019-05-17T15:29:05.675Z,6.67
2019-05-17T15:31:34.974Z,6.87
2019-05-17T15:34:04.230Z,7.12
2019-05-17T15:36:33.446Z,7.60
2019-05-17T15:39:05.834Z,7.53
2019-05-17T15:41:36.212Z,7.78
2019-05-17T15:44:05.784Z,7.30
2019-05-17T15:46:35.017Z,7.25
2019-05-17T15:49:04.260Z,8.43
2019-05-17T15:51:33.581Z,8.35
2019-05-17T15:54:02.811Z,7.70
2019-05-17T15:56:32.131Z,7.90
2019-05-17T15:59:01.314Z,7.28
2019-05-17T16:01:33.947Z,7.40
2019-05-17T16:04:09.703Z,7.03
2019-05-17T16:06:55.694Z,7.42
2019-05-17T16:09:26.478Z,7.45
2019-05-17T16:11:56.032Z,7.85
2019-05-17T16:14:25.207Z,8.10
2019-05-17T16:16:54.409Z,8.55
2019-05-17T16:19:23.776Z,8.00
2019-05-17T16:21:53.086Z,7.58
2019-05-17T16:24:22.267Z,7.20
2019-05-17T16:26:51.470Z,7.40
2019-05-17T16:29:20.723Z,7.12
2019-05-17T16:31:49.986Z,7.33
2019-05-17T16:34:19.242Z,7.10
2019-05-17T16:36:48.419Z,7.28
2019-05-17T16:39:17.658Z,7.08
2019-05-17T16:41:46.830Z,7.45
2019-05-17T16:44:16.155Z,7.35
2019-05-17T16:46:45.446Z,7.20
2019-05-17T16:49:14.702Z,7.58
2019-05-17T16:51:43.960Z,7.53
2019-05-17T16:54:13.196Z,7.30
2019-05-17T16:56:42.437Z,7.53
2019-05-17T16:59:11.690Z,7.92
2019-05-17T17:01:40.914Z,6.90
2019-05-17T17:04:10.156Z,7.47
2019-05-17T17:06:39.333Z,7.67
2019-05-17T17:09:08.633Z,8.95
2019-05-17T17:11:37.836Z,8.63
2019-05-17T17:14:07.041Z,9.33
2019-05-17T17:16:36.399Z,9.78
2019-05-17T17:19:06.178Z,9.50
2019-05-17T17:21:35.450Z,9.43
2019-05-17T17:24:04.702Z,9.58
2019-05-17T17:26:33.873Z,8.60
2019-05-17T17:29:03.269Z,9.88
2019-05-17T17:31:32.439Z,9.58
2019-05-17T17:34:01.612Z,9.63
2019-05-17T17:36:30.924Z,8.00
2019-05-17T17:39:00.177Z,8.30
2019-05-17T17:41:29.478Z,7.80
2019-05-17T17:43:59.319Z,8.20
2019-05-17T17:46:28.886Z,8.20
2019-05-17T17:48:58.125Z,8.83
2019-05-17T17:51:27.402Z,9.05
2019-05-17T17:53:56.724Z,8.98
2019-05-17T17:56:25.897Z,8.45
2019-05-17T17:58:55.073Z,9.43
2019-05-17T18:01:24.322Z,16.40
2019-05-17T18:03:53.575Z,10.63
2019-05-17T18:06:22.798Z,9.90
2019-05-17T18:08:52.068Z,12.60
2019-05-17T18:11:21.510Z,13.98
2019-05-17T18:13:50.706Z,14.80
2019-05-17T18:16:19.963Z,20.23
2019-05-17T18:18:49.209Z,19.98
2019-05-17T18:21:18.393Z,20.23
2019-05-17T18:23:47.752Z,16.12
2019-05-17T18:26:17.154Z,14.38
2019-05-17T18:28:46.479Z,19.42
2019-05-17T18:31:15.734Z,10.23
2019-05-17T18:33:45.092Z,14.80
2019-05-17T18:36:14.349Z,13.20
2019-05-17T18:39:06.388Z,11.55
2019-05-17T18:41:54.986Z,13.55
2019-05-17T18:44:27.925Z,13.03
2019-05-17T18:47:01.236Z,13.55
2019-05-17T18:49:46.683Z,14.68
2019-05-17T18:52:24.108Z,14.55
2019-05-17T18:55:07.077Z,15.50
2019-05-17T18:57:37.556Z,16.60
2019-05-17T19:00:06.907Z,14.68
2019-05-17T19:02:36.956Z,15.38
2019-05-17T19:05:08.957Z,15.83
2019-05-17T19:07:38.336Z,15.55
2019-05-17T19:10:08.560Z,13.98
2019-05-17T19:12:37.741Z,12.80
2019-05-17T19:15:10.127Z,14.43
2019-05-17T19:17:39.451Z,13.48
2019-05-17T19:20:08.957Z,13.78
2019-05-17T19:22:38.236Z,14.47
2019-05-17T19:25:08.757Z,12.60
2019-05-17T19:27:38.407Z,13.13
2019-05-17T19:30:10.710Z,13.72
2019-05-17T19:32:40.435Z,14.63
2019-05-17T19:35:09.965Z,15.80
2019-05-17T19:37:39.192Z,16.07
2019-05-17T19:40:08.578Z,15.83
2019-05-17T19:42:40.060Z,15.43
2019-05-17T19:45:09.303Z,15.05
2019-05-17T19:47:38.762Z,14.78
2019-05-17T19:50:08.081Z,14.73
2019-05-17T19:52:37.394Z,18.95
2019-05-17T19:55:06.726Z,22.13
2019-05-17T19:57:36.265Z,16.80
2019-05-17T20:00:06.823Z,18.20
2019-05-17T20:02:36.072Z,17.37
2019-05-17T20:05:06.624Z,17.40
2019-05-17T20:07:38.588Z,17.90
2019-05-17T20:10:09.922Z,16.70
2019-05-17T20:12:40.851Z,22.22
2019-05-17T20:15:17.231Z,21.70
2019-05-17T20:17:41.739Z,20.80
2019-05-17T20:20:11.040Z,26.97
2019-05-17T20:22:40.340Z,26.33
2019-05-17T20:25:09.510Z,27.40
2019-05-17T20:27:38.874Z,25.00
2019-05-17T20:30:11.132Z,25.20
2019-05-17T20:35:08.960Z,28.50
2019-05-17T20:37:38.221Z,28.42
2019-05-17T20:40:09.098Z,27.75
2019-05-17T20:42:38.340Z,27.00
2019-05-17T20:45:08.288Z,27.35
2019-05-17T20:47:37.499Z,27.30
2019-05-17T20:50:07.599Z,26.77
2019-05-17T20:52:36.782Z,26.82
2019-05-17T20:55:06.308Z,25.62
2019-05-17T20:57:35.496Z,23.52
2019-05-17T21:00:07.449Z,24.98
2019-05-17T21:02:36.678Z,23.87
2019-05-17T21:05:06.790Z,24.12
2019-05-17T21:07:35.974Z,25.15
2019-05-17T21:10:08.016Z,26.20
2019-05-17T21:12:37.272Z,26.33
2019-05-17T21:15:10.481Z,26.48
2019-05-17T21:17:39.778Z,26.70
2019-05-17T21:20:09.200Z,26.93
2019-05-17T21:22:38.387Z,26.45
2019-05-17T21:25:08.890Z,25.55
2019-05-17T21:27:38.085Z,28.17
2019-05-17T21:30:35.298Z,27.10
2019-05-17T21:32:55.902Z,27.82
2019-05-17T21:35:25.869Z,27.25
2019-05-17T21:37:55.289Z,25.70
2019-05-17T21:40:24.613Z,26.25
2019-05-17T21:42:53.942Z,28.30
2019-05-17T21:45:23.171Z,26.57
2019-05-17T21:47:52.424Z,26.25
2019-05-17T21:50:21.646Z,26.12
2019-05-17T21:52:50.835Z,28.30
2019-05-17T21:55:20.646Z,26.97
2019-05-17T21:57:49.934Z,26.87
2019-05-17T22:00:51.407Z,29.27
2019-05-17T22:03:20.634Z,28.50
2019-05-17T22:05:51.025Z,28.70
2019-05-17T22:08:20.321Z,28.38
2019-05-17T22:10:50.194Z,29.15
2019-05-17T22:13:19.464Z,30.80
2019-05-17T22:15:48.733Z,31.52
2019-05-17T22:18:18.769Z,30.77
2019-05-17T22:20:48.148Z,30.02
2019-05-17T22:23:18.016Z,31.27
2019-05-17T22:25:47.293Z,30.15
2019-05-17T22:28:16.470Z,31.10
2019-05-17T22:30:45.710Z,30.37
2019-05-17T22:33:15.022Z,29.92
2019-05-17T22:35:44.302Z,31.00
2019-05-17T22:38:13.562Z,29.25
2019-05-17T22:40:42.778Z,29.20
2019-05-17T22:43:12.141Z,29.15
2019-05-17T22:45:41.493Z,28.25
2019-05-17T22:48:10.771Z,27.90
2019-05-17T22:50:39.998Z,25.60
2019-05-17T22:53:09.315Z,27.22
2019-05-17T22:55:38.692Z,30.52
2019-05-17T22:58:07.942Z,28.25
2019-05-17T23:00:37.182Z,28.30
2019-05-17T23:03:06.427Z,27.90
2019-05-17T23:05:35.648Z,28.23
2019-05-17T23:08:04.880Z,28.57
2019-05-17T23:10:35.202Z,31.50
2019-05-17T23:13:04.598Z,30.35
2019-05-17T23:15:35.672Z,29.18
2019-05-17T23:18:04.936Z,29.23
2019-05-17T23:20:34.117Z,30.40
2019-05-17T23:23:03.443Z,27.65
2019-05-17T23:25:32.719Z,28.77
2019-05-17T23:28:01.924Z,29.07
2019-05-17T23:30:31.255Z,27.45
2019-05-17T23:33:00.527Z,27.48
2019-05-17T23:35:29.830Z,29.23
2019-05-17T23:37:59.071Z,28.80
2019-05-17T23:40:28.250Z,27.77
2019-05-17T23:42:57.495Z,29.30
2019-05-17T23:45:26.768Z,29.23
2019-05-17T23:47:56.019Z,27.13
2019-05-17T23:50:25.373Z,29.87
2019-05-17T23:52:54.625Z,26.07
2019-05-17T23:55:23.812Z,32.17
2019-05-17T23:57:53.140Z,27.52
